sensor_id;sensor_type;location;lat;lon;timestamp;temperature;humidity
3406;DHT22;10008;48.682;9.016;2023-08-06T00:00:11;15.30;99.90
3406;DHT22;10008;48.682;9.016;2023-08-06T00:02:37;15.20;99.90
3406;DHT22;10008;48.682;9.016;2023-08-06T00:05:02;15.20;99.90
3406;DHT22;10008;48.682;9.016;2023-08-06T00:07:28;15.20;99.90
3406;DHT22;10008;48.682;9.016;2023-08-06T00:09:54;15.10;99.90
3406;DHT22;10008;48.682;9.016;2023-08-06T00:12:20;15.10;99.90
3406;DHT22;10008;48.682;9.016;2023-08-06T00:14:49;15.10;99.90
3406;DHT22;10008;48.682;9.016;2023-08-06T00:17:15;15.10;99.90
3406;DHT22;10008;48.682;9.016;2023-08-06T00:19:40;15.10;99.90
3406;DHT22;10008;48.682;9.016;2023-08-06T00:22:06;15.10;99.90
3406;DHT22;10008;48.682;9.016;2023-08-06T00:24:32;15.10;99.90
3406;DHT22;10008;48.682;9.016;2023-08-06T00:26:58;15.10;99.90
3406;DHT22;10008;48.682;9.016;2023-08-06T00:29:24;15.10;99.90
3406;DHT22;10008;48.682;9.016;2023-08-06T00:31:50;15.10;99.90
3406;DHT22;10008;48.682;9.016;2023-08-06T00:34:16;15.10;99.90
3406;DHT22;10008;48.682;9.016;2023-08-06T00:36:42;15.10;99.90
3406;DHT22;10008;48.682;9.016;2023-08-06T00:39:07;15.00;99.90
3406;DHT22;10008;48.682;9.016;2023-08-06T00:41:33;15.00;99.90
3406;DHT22;10008;48.682;9.016;2023-08-06T00:43:59;15.10;99.90
3406;DHT22;10008;48.682;9.016;2023-08-06T00:46:24;15.10;99.90
3406;DHT22;10008;48.682;9.016;2023-08-06T00:48:51;15.00;99.90
3406;DHT22;10008;48.682;9.016;2023-08-06T00:51:17;15.00;99.90
3406;DHT22;10008;48.682;9.016;2023-08-06T00:53:43;15.00;99.90
3406;DHT22;10008;48.682;9.016;2023-08-06T00:56:09;14.90;99.90
3406;DHT22;10008;48.682;9.016;2023-08-06T00:58:36;14.90;99.90
3406;DHT22;10008;48.682;9.016;2023-08-06T01:01:02;14.90;99.90
3406;DHT22;10008;48.682;9.016;2023-08-06T01:03:27;14.90;99.90
3406;DHT22;10008;48.682;9.016;2023-08-06T01:05:53;14.90;99.90
3406;DHT22;10008;48.682;9.016;2023-08-06T01:08:58;14.80;99.90
3406;DHT22;10008;48.682;9.016;2023-08-06T01:11:38;14.70;99.90
3406;DHT22;10008;48.682;9.016;2023-08-06T01:14:18;14.50;99.90
3406;DHT22;10008;48.682;9.016;2023-08-06T01:16:49;14.40;99.90
3406;DHT22;10008;48.682;9.016;2023-08-06T01:19:19;14.40;99.90
3406;DHT22;10008;48.682;9.016;2023-08-06T01:21:45;14.30;99.90
3406;DHT22;10008;48.682;9.016;2023-08-06T01:24:12;14.30;99.90
3406;DHT22;10008;48.682;9.016;2023-08-06T01:26:43;14.20;99.90
3406;DHT22;10008;48.682;9.016;2023-08-06T01:29:34;14.30;99.90
3406;DHT22;10008;48.682;9.016;2023-08-06T01:32:02;14.20;99.90
3406;DHT22;10008;48.682;9.016;2023-08-06T01:34:31;14.10;99.90
3406;DHT22;10008;48.682;9.016;2023-08-06T01:36:59;14.10;99.90
3406;DHT22;10008;48.682;9.016;2023-08-06T01:39:26;14.20;99.90
3406;DHT22;10008;48.682;9.016;2023-08-06T01:41:52;14.20;99.90
3406;DHT22;10008;48.682;9.016;2023-08-06T01:44:18;14.20;99.90
3406;DHT22;10008;48.682;9.016;2023-08-06T01:46:44;14.10;99.90
3406;DHT22;10008;48.682;9.016;2023-08-06T01:49:09;14.10;99.90
3406;DHT22;10008;48.682;9.016;2023-08-06T01:51:35;14.20;99.90
3406;DHT22;10008;48.682;9.016;2023-08-06T01:54:01;14.10;99.90
3406;DHT22;10008;48.682;9.016;2023-08-06T01:56:27;14.10;99.90
3406;DHT22;10008;48.682;9.016;2023-08-06T01:58:52;14.10;99.90
3406;DHT22;10008;48.682;9.016;2023-08-06T02:01:18;14.10;99.90
3406;DHT22;10008;48.682;9.016;2023-08-06T02:03:44;14.00;99.90
3406;DHT22;10008;48.682;9.016;2023-08-06T02:06:10;14.00;99.90
3406;DHT22;10008;48.682;9.016;2023-08-06T02:08:36;13.90;99.90
3406;DHT22;10008;48.682;9.016;2023-08-06T02:11:01;13.90;99.90
3406;DHT22;10008;48.682;9.016;2023-08-06T02:13:30;13.80;99.90
3406;DHT22;10008;48.682;9.016;2023-08-06T02:15:55;13.90;99.90
3406;DHT22;10008;48.682;9.016;2023-08-06T02:18:21;13.80;99.90
3406;DHT22;10008;48.682;9.016;2023-08-06T02:20:57;13.70;99.90
3406;DHT22;10008;48.682;9.016;2023-08-06T02:23:23;13.60;99.90
3406;DHT22;10008;48.682;9.016;2023-08-06T02:26:00;13.70;99.90
3406;DHT22;10008;48.682;9.016;2023-08-06T02:28:28;13.60;99.90
3406;DHT22;10008;48.682;9.016;2023-08-06T02:30:54;13.60;99.90
3406;DHT22;10008;48.682;9.016;2023-08-06T02:33:19;13.50;99.90
3406;DHT22;10008;48.682;9.016;2023-08-06T02:35:45;13.50;99.90
3406;DHT22;10008;48.682;9.016;2023-08-06T02:38:11;13.50;99.90
3406;DHT22;10008;48.682;9.016;2023-08-06T02:40:37;13.50;99.90
3406;DHT22;10008;48.682;9.016;2023-08-06T02:43:07;13.50;99.90
3406;DHT22;10008;48.682;9.016;2023-08-06T02:45:33;13.60;99.90
3406;DHT22;10008;48.682;9.016;2023-08-06T02:47:59;13.60;99.90
3406;DHT22;10008;48.682;9.016;2023-08-06T02:50:25;13.60;99.90
3406;DHT22;10008;48.682;9.016;2023-08-06T02:52:50;13.60;99.90
3406;DHT22;10008;48.682;9.016;2023-08-06T02:55:16;13.60;99.90
3406;DHT22;10008;48.682;9.016;2023-08-06T02:57:45;13.60;99.90
3406;DHT22;10008;48.682;9.016;2023-08-06T03:00:11;13.70;99.90
3406;DHT22;10008;48.682;9.016;2023-08-06T03:02:37;13.70;99.90
3406;DHT22;10008;48.682;9.016;2023-08-06T03:05:20;13.70;99.90
3406;DHT22;10008;48.682;9.016;2023-08-06T03:07:47;13.80;99.90
3406;DHT22;10008;48.682;9.016;2023-08-06T03:10:18;13.80;99.90
3406;DHT22;10008;48.682;9.016;2023-08-06T03:12:46;13.90;99.90
3406;DHT22;10008;48.682;9.016;2023-08-06T03:15:12;13.90;99.90
3406;DHT22;10008;48.682;9.016;2023-08-06T03:17:39;14.00;99.90
3406;DHT22;10008;48.682;9.016;2023-08-06T03:20:07;14.00;99.90
3406;DHT22;10008;48.682;9.016;2023-08-06T03:22:33;14.10;99.90
3406;DHT22;10008;48.682;9.016;2023-08-06T03:24:59;14.10;99.90
3406;DHT22;10008;48.682;9.016;2023-08-06T03:27:26;14.10;99.90
3406;DHT22;10008;48.682;9.016;2023-08-06T03:29:52;14.20;99.90
3406;DHT22;10008;48.682;9.016;2023-08-06T03:32:22;14.20;99.90
3406;DHT22;10008;48.682;9.016;2023-08-06T03:34:47;14.20;99.90
3406;DHT22;10008;48.682;9.016;2023-08-06T03:37:14;14.20;99.90
3406;DHT22;10008;48.682;9.016;2023-08-06T03:39:40;14.20;99.90
3406;DHT22;10008;48.682;9.016;2023-08-06T03:42:06;14.30;99.90
3406;DHT22;10008;48.682;9.016;2023-08-06T03:44:32;14.30;99.90
3406;DHT22;10008;48.682;9.016;2023-08-06T03:46:58;14.20;99.90
3406;DHT22;10008;48.682;9.016;2023-08-06T03:49:23;14.20;99.90
3406;DHT22;10008;48.682;9.016;2023-08-06T03:51:49;14.20;99.90
3406;DHT22;10008;48.682;9.016;2023-08-06T03:54:15;14.20;99.90
3406;DHT22;10008;48.682;9.016;2023-08-06T03:56:41;14.20;99.90
3406;DHT22;10008;48.682;9.016;2023-08-06T03:59:07;14.20;99.90
3406;DHT22;10008;48.682;9.016;2023-08-06T04:01:32;14.20;99.90
3406;DHT22;10008;48.682;9.016;2023-08-06T04:03:58;14.20;99.90
3406;DHT22;10008;48.682;9.016;2023-08-06T04:06:24;14.10;99.90
3406;DHT22;10008;48.682;9.016;2023-08-06T04:08:50;14.10;99.90
3406;DHT22;10008;48.682;9.016;2023-08-06T04:11:15;14.10;99.90
3406;DHT22;10008;48.682;9.016;2023-08-06T04:13:44;14.10;99.90
3406;DHT22;10008;48.682;9.016;2023-08-06T04:16:10;14.00;99.90
3406;DHT22;10008;48.682;9.016;2023-08-06T04:18:36;14.00;99.90
3406;DHT22;10008;48.682;9.016;2023-08-06T04:21:02;14.00;99.90
3406;DHT22;10008;48.682;9.016;2023-08-06T04:23:28;14.00;99.90
3406;DHT22;10008;48.682;9.016;2023-08-06T04:25:58;14.00;99.90
3406;DHT22;10008;48.682;9.016;2023-08-06T04:28:27;14.10;99.90
3406;DHT22;10008;48.682;9.016;2023-08-06T04:30:53;14.10;99.90
3406;DHT22;10008;48.682;9.016;2023-08-06T04:33:20;14.10;99.90
3406;DHT22;10008;48.682;9.016;2023-08-06T04:35:46;14.10;99.90
3406;DHT22;10008;48.682;9.016;2023-08-06T04:38:12;14.00;99.90
3406;DHT22;10008;48.682;9.016;2023-08-06T04:40:38;14.10;99.90
3406;DHT22;10008;48.682;9.016;2023-08-06T04:43:04;14.10;99.90
3406;DHT22;10008;48.682;9.016;2023-08-06T04:45:33;14.10;99.90
3406;DHT22;10008;48.682;9.016;2023-08-06T04:47:59;12.70;99.90
3406;DHT22;10008;48.682;9.016;2023-08-06T04:50:25;14.10;99.90
3406;DHT22;10008;48.682;9.016;2023-08-06T04:52:50;14.10;99.90
3406;DHT22;10008;48.682;9.016;2023-08-06T04:55:16;14.10;99.90
3406;DHT22;10008;48.682;9.016;2023-08-06T04:57:42;14.10;99.90
3406;DHT22;10008;48.682;9.016;2023-08-06T05:00:08;14.10;99.90
3406;DHT22;10008;48.682;9.016;2023-08-06T05:02:33;14.10;99.90
3406;DHT22;10008;48.682;9.016;2023-08-06T05:05:00;14.20;99.90
3406;DHT22;10008;48.682;9.016;2023-08-06T05:07:25;14.20;99.90
3406;DHT22;10008;48.682;9.016;2023-08-06T05:09:51;14.30;99.90
3406;DHT22;10008;48.682;9.016;2023-08-06T05:12:17;14.30;99.90
3406;DHT22;10008;48.682;9.016;2023-08-06T05:14:42;14.30;99.90
3406;DHT22;10008;48.682;9.016;2023-08-06T05:17:08;14.30;99.90
3406;DHT22;10008;48.682;9.016;2023-08-06T05:19:34;14.40;99.90
3406;DHT22;10008;48.682;9.016;2023-08-06T05:22:00;14.40;99.90
3406;DHT22;10008;48.682;9.016;2023-08-06T05:24:27;14.40;99.90
3406;DHT22;10008;48.682;9.016;2023-08-06T05:26:52;14.60;99.90
3406;DHT22;10008;48.682;9.016;2023-08-06T05:29:18;14.70;99.90
3406;DHT22;10008;48.682;9.016;2023-08-06T05:31:44;14.80;99.90
3406;DHT22;10008;48.682;9.016;2023-08-06T05:34:09;14.90;99.90
3406;DHT22;10008;48.682;9.016;2023-08-06T05:36:35;14.90;99.90
3406;DHT22;10008;48.682;9.016;2023-08-06T05:39:01;14.90;99.90
3406;DHT22;10008;48.682;9.016;2023-08-06T05:41:26;15.00;99.90
3406;DHT22;10008;48.682;9.016;2023-08-06T05:43:52;14.90;99.90
3406;DHT22;10008;48.682;9.016;2023-08-06T05:46:18;14.80;99.90
3406;DHT22;10008;48.682;9.016;2023-08-06T05:48:43;14.70;99.90
3406;DHT22;10008;48.682;9.016;2023-08-06T05:51:09;14.60;99.90
3406;DHT22;10008;48.682;9.016;2023-08-06T05:53:38;14.60;99.90
3406;DHT22;10008;48.682;9.016;2023-08-06T05:56:04;14.60;99.90
3406;DHT22;10008;48.682;9.016;2023-08-06T05:58:29;14.60;99.90
3406;DHT22;10008;48.682;9.016;2023-08-06T06:00:56;14.60;99.90
3406;DHT22;10008;48.682;9.016;2023-08-06T06:03:22;14.50;99.90
3406;DHT22;10008;48.682;9.016;2023-08-06T06:05:47;14.50;99.90
3406;DHT22;10008;48.682;9.016;2023-08-06T06:08:13;14.60;99.90
3406;DHT22;10008;48.682;9.016;2023-08-06T06:10:39;14.60;99.90
3406;DHT22;10008;48.682;9.016;2023-08-06T06:13:04;14.60;99.90
3406;DHT22;10008;48.682;9.016;2023-08-06T06:15:30;14.70;99.90
3406;DHT22;10008;48.682;9.016;2023-08-06T06:17:56;14.60;99.90
3406;DHT22;10008;48.682;9.016;2023-08-06T06:20:23;14.60;99.90
3406;DHT22;10008;48.682;9.016;2023-08-06T06:22:48;14.50;99.90
3406;DHT22;10008;48.682;9.016;2023-08-06T06:25:14;14.50;99.90
3406;DHT22;10008;48.682;9.016;2023-08-06T06:27:40;14.50;99.90
3406;DHT22;10008;48.682;9.016;2023-08-06T06:30:06;14.50;99.90
3406;DHT22;10008;48.682;9.016;2023-08-06T06:32:32;14.50;99.90
3406;DHT22;10008;48.682;9.016;2023-08-06T06:34:58;14.50;99.90
3406;DHT22;10008;48.682;9.016;2023-08-06T06:37:24;14.50;99.90
3406;DHT22;10008;48.682;9.016;2023-08-06T06:39:50;14.50;99.90
3406;DHT22;10008;48.682;9.016;2023-08-06T06:42:15;14.60;99.90
3406;DHT22;10008;48.682;9.016;2023-08-06T06:44:45;14.70;99.90
3406;DHT22;10008;48.682;9.016;2023-08-06T06:47:10;14.80;99.90
3406;DHT22;10008;48.682;9.016;2023-08-06T06:49:36;14.80;99.90
3406;DHT22;10008;48.682;9.016;2023-08-06T06:52:02;14.70;99.90
3406;DHT22;10008;48.682;9.016;2023-08-06T06:54:28;14.60;99.90
3406;DHT22;10008;48.682;9.016;2023-08-06T06:56:53;14.50;99.90
3406;DHT22;10008;48.682;9.016;2023-08-06T06:59:19;14.30;99.90
3406;DHT22;10008;48.682;9.016;2023-08-06T07:01:45;14.20;99.90
3406;DHT22;10008;48.682;9.016;2023-08-06T07:04:10;14.10;99.90
3406;DHT22;10008;48.682;9.016;2023-08-06T07:06:36;14.00;99.90
3406;DHT22;10008;48.682;9.016;2023-08-06T07:09:02;13.90;99.90
3406;DHT22;10008;48.682;9.016;2023-08-06T07:11:27;13.90;99.90
3406;DHT22;10008;48.682;9.016;2023-08-06T07:13:57;13.90;99.90
3406;DHT22;10008;48.682;9.016;2023-08-06T07:16:26;13.90;99.90
3406;DHT22;10008;48.682;9.016;2023-08-06T07:18:53;13.90;99.90
3406;DHT22;10008;48.682;9.016;2023-08-06T07:21:19;13.80;99.90
3406;DHT22;10008;48.682;9.016;2023-08-06T07:23:45;13.70;99.90
3406;DHT22;10008;48.682;9.016;2023-08-06T07:26:11;13.60;99.90
3406;DHT22;10008;48.682;9.016;2023-08-06T07:28:36;13.60;99.90
3406;DHT22;10008;48.682;9.016;2023-08-06T07:31:03;13.60;99.90
3406;DHT22;10008;48.682;9.016;2023-08-06T07:33:29;13.60;99.90
3406;DHT22;10008;48.682;9.016;2023-08-06T07:35:55;13.60;99.90
3406;DHT22;10008;48.682;9.016;2023-08-06T07:38:20;13.60;99.90
3406;DHT22;10008;48.682;9.016;2023-08-06T07:40:47;13.70;99.90
3406;DHT22;10008;48.682;9.016;2023-08-06T07:43:12;13.70;99.90
3406;DHT22;10008;48.682;9.016;2023-08-06T07:45:38;13.60;99.90
3406;DHT22;10008;48.682;9.016;2023-08-06T07:48:04;13.60;99.90
3406;DHT22;10008;48.682;9.016;2023-08-06T07:50:31;13.60;99.90
3406;DHT22;10008;48.682;9.016;2023-08-06T07:52:56;13.50;99.90
3406;DHT22;10008;48.682;9.016;2023-08-06T07:55:22;13.60;99.90
3406;DHT22;10008;48.682;9.016;2023-08-06T07:57:48;13.70;99.90
3406;DHT22;10008;48.682;9.016;2023-08-06T08:00:14;14.00;99.90
3406;DHT22;10008;48.682;9.016;2023-08-06T08:02:40;14.60;99.90
3406;DHT22;10008;48.682;9.016;2023-08-06T08:05:06;14.80;99.90
3406;DHT22;10008;48.682;9.016;2023-08-06T08:07:33;15.10;99.90
3406;DHT22;10008;48.682;9.016;2023-08-06T08:09:59;15.00;99.90
3406;DHT22;10008;48.682;9.016;2023-08-06T08:12:25;14.80;99.90
3406;DHT22;10008;48.682;9.016;2023-08-06T08:14:50;14.70;99.90
3406;DHT22;10008;48.682;9.016;2023-08-06T08:17:16;14.60;99.90
3406;DHT22;10008;48.682;9.016;2023-08-06T08:19:43;14.50;99.90
3406;DHT22;10008;48.682;9.016;2023-08-06T08:22:08;14.30;99.90
3406;DHT22;10008;48.682;9.016;2023-08-06T08:24:34;14.20;99.90
3406;DHT22;10008;48.682;9.016;2023-08-06T08:27:00;14.20;99.90
3406;DHT22;10008;48.682;9.016;2023-08-06T08:29:26;14.20;99.90
3406;DHT22;10008;48.682;9.016;2023-08-06T08:31:51;14.20;99.90
3406;DHT22;10008;48.682;9.016;2023-08-06T08:34:17;14.20;99.90
3406;DHT22;10008;48.682;9.016;2023-08-06T08:36:43;14.10;99.90
3406;DHT22;10008;48.682;9.016;2023-08-06T08:39:12;14.20;99.90
3406;DHT22;10008;48.682;9.016;2023-08-06T08:41:39;14.20;99.90
3406;DHT22;10008;48.682;9.016;2023-08-06T08:44:08;14.50;99.90
3406;DHT22;10008;48.682;9.016;2023-08-06T08:46:36;14.60;99.90
3406;DHT22;10008;48.682;9.016;2023-08-06T08:49:04;14.40;99.90
3406;DHT22;10008;48.682;9.016;2023-08-06T08:51:30;14.30;99.90
3406;DHT22;10008;48.682;9.016;2023-08-06T08:53:57;14.30;99.90
3406;DHT22;10008;48.682;9.016;2023-08-06T08:56:23;14.20;99.90
3406;DHT22;10008;48.682;9.016;2023-08-06T08:58:50;14.20;99.90
3406;DHT22;10008;48.682;9.016;2023-08-06T09:01:17;14.30;99.90
3406;DHT22;10008;48.682;9.016;2023-08-06T09:03:44;14.40;99.90
3406;DHT22;10008;48.682;9.016;2023-08-06T09:06:11;14.80;99.90
3406;DHT22;10008;48.682;9.016;2023-08-06T09:08:43;14.90;99.90
3406;DHT22;10008;48.682;9.016;2023-08-06T09:11:12;14.90;99.90
3406;DHT22;10008;48.682;9.016;2023-08-06T09:13:38;15.00;99.90
3406;DHT22;10008;48.682;9.016;2023-08-06T09:16:04;15.00;99.90
3406;DHT22;10008;48.682;9.016;2023-08-06T09:18:30;15.00;99.90
3406;DHT22;10008;48.682;9.016;2023-08-06T09:20:57;15.20;99.90
3406;DHT22;10008;48.682;9.016;2023-08-06T09:23:30;15.30;99.90
3406;DHT22;10008;48.682;9.016;2023-08-06T09:25:57;15.70;99.90
3406;DHT22;10008;48.682;9.016;2023-08-06T09:28:23;15.60;99.90
3406;DHT22;10008;48.682;9.016;2023-08-06T09:30:50;15.40;99.90
3406;DHT22;10008;48.682;9.016;2023-08-06T09:33:19;15.20;99.90
3406;DHT22;10008;48.682;9.016;2023-08-06T09:35:46;14.90;99.90
3406;DHT22;10008;48.682;9.016;2023-08-06T09:38:12;14.90;99.90
3406;DHT22;10008;48.682;9.016;2023-08-06T09:40:40;14.80;99.90
3406;DHT22;10008;48.682;9.016;2023-08-06T09:43:06;14.70;99.90
3406;DHT22;10008;48.682;9.016;2023-08-06T09:45:37;14.70;99.90
3406;DHT22;10008;48.682;9.016;2023-08-06T09:48:04;14.80;99.90
3406;DHT22;10008;48.682;9.016;2023-08-06T09:50:31;14.70;99.90
3406;DHT22;10008;48.682;9.016;2023-08-06T09:52:58;14.70;99.90
3406;DHT22;10008;48.682;9.016;2023-08-06T09:55:25;14.60;99.90
3406;DHT22;10008;48.682;9.016;2023-08-06T09:57:52;14.50;99.90
3406;DHT22;10008;48.682;9.016;2023-08-06T10:00:19;14.40;99.90
3406;DHT22;10008;48.682;9.016;2023-08-06T10:02:46;14.20;99.90
3406;DHT22;10008;48.682;9.016;2023-08-06T10:05:14;14.20;99.90
3406;DHT22;10008;48.682;9.016;2023-08-06T10:07:43;14.20;99.90
3406;DHT22;10008;48.682;9.016;2023-08-06T10:10:09;14.20;99.90
3406;DHT22;10008;48.682;9.016;2023-08-06T10:12:46;14.20;99.90
3406;DHT22;10008;48.682;9.016;2023-08-06T10:15:16;14.10;99.90
3406;DHT22;10008;48.682;9.016;2023-08-06T10:17:45;14.20;99.90
3406;DHT22;10008;48.682;9.016;2023-08-06T10:20:12;14.20;99.90
3406;DHT22;10008;48.682;9.016;2023-08-06T10:22:43;14.10;99.90
3406;DHT22;10008;48.682;9.016;2023-08-06T10:25:16;14.10;99.90
3406;DHT22;10008;48.682;9.016;2023-08-06T10:30:31;14.10;99.90
3406;DHT22;10008;48.682;9.016;2023-08-06T10:33:02;14.10;99.90
3406;DHT22;10008;48.682;9.016;2023-08-06T10:37:58;14.00;99.90
3406;DHT22;10008;48.682;9.016;2023-08-06T10:40:25;14.00;99.90
3406;DHT22;10008;48.682;9.016;2023-08-06T10:42:51;13.90;99.90
3406;DHT22;10008;48.682;9.016;2023-08-06T10:45:18;13.90;99.90
3406;DHT22;10008;48.682;9.016;2023-08-06T10:47:45;13.90;99.90
3406;DHT22;10008;48.682;9.016;2023-08-06T10:50:13;13.80;99.90
3406;DHT22;10008;48.682;9.016;2023-08-06T10:52:39;13.90;99.90
3406;DHT22;10008;48.682;9.016;2023-08-06T10:55:06;13.90;99.90
3406;DHT22;10008;48.682;9.016;2023-08-06T10:57:32;13.90;99.90
3406;DHT22;10008;48.682;9.016;2023-08-06T10:59:57;13.90;99.90
3406;DHT22;10008;48.682;9.016;2023-08-06T11:02:23;13.90;99.90
3406;DHT22;10008;48.682;9.016;2023-08-06T11:04:49;14.00;99.90
3406;DHT22;10008;48.682;9.016;2023-08-06T11:07:15;14.00;99.90
3406;DHT22;10008;48.682;9.016;2023-08-06T11:09:40;14.00;99.90
3406;DHT22;10008;48.682;9.016;2023-08-06T11:12:10;14.10;99.90
3406;DHT22;10008;48.682;9.016;2023-08-06T11:14:36;14.10;99.90
3406;DHT22;10008;48.682;9.016;2023-08-06T11:17:01;14.00;99.90
3406;DHT22;10008;48.682;9.016;2023-08-06T11:19:27;14.10;99.90
3406;DHT22;10008;48.682;9.016;2023-08-06T11:21:54;13.80;99.90
3406;DHT22;10008;48.682;9.016;2023-08-06T11:24:23;13.70;99.90
3406;DHT22;10008;48.682;9.016;2023-08-06T11:26:49;13.80;99.90
3406;DHT22;10008;48.682;9.016;2023-08-06T11:29:15;13.80;99.90
3406;DHT22;10008;48.682;9.016;2023-08-06T11:31:41;13.70;99.90
3406;DHT22;10008;48.682;9.016;2023-08-06T11:34:07;13.70;99.90
3406;DHT22;10008;48.682;9.016;2023-08-06T11:36:34;13.80;99.90
3406;DHT22;10008;48.682;9.016;2023-08-06T11:39:02;13.90;99.90
3406;DHT22;10008;48.682;9.016;2023-08-06T11:41:31;14.00;99.90
3406;DHT22;10008;48.682;9.016;2023-08-06T11:43:58;14.00;99.90
3406;DHT22;10008;48.682;9.016;2023-08-06T11:46:24;13.90;99.90
3406;DHT22;10008;48.682;9.016;2023-08-06T11:48:58;14.00;99.90
3406;DHT22;10008;48.682;9.016;2023-08-06T11:51:27;14.10;99.90
3406;DHT22;10008;48.682;9.016;2023-08-06T11:53:57;14.10;99.90
3406;DHT22;10008;48.682;9.016;2023-08-06T11:56:24;14.20;99.90
3406;DHT22;10008;48.682;9.016;2023-08-06T11:58:51;14.30;99.90
3406;DHT22;10008;48.682;9.016;2023-08-06T12:01:18;14.20;99.90
3406;DHT22;10008;48.682;9.016;2023-08-06T12:03:43;14.40;99.90
3406;DHT22;10008;48.682;9.016;2023-08-06T12:06:09;14.40;99.90
3406;DHT22;10008;48.682;9.016;2023-08-06T12:08:35;14.50;99.90
3406;DHT22;10008;48.682;9.016;2023-08-06T12:11:01;14.50;99.90
3406;DHT22;10008;48.682;9.016;2023-08-06T12:13:27;14.50;99.90
3406;DHT22;10008;48.682;9.016;2023-08-06T12:15:54;14.60;99.90
3406;DHT22;10008;48.682;9.016;2023-08-06T12:18:22;14.50;99.90
3406;DHT22;10008;48.682;9.016;2023-08-06T12:20:48;14.40;99.90
3406;DHT22;10008;48.682;9.016;2023-08-06T12:23:14;14.30;99.90
3406;DHT22;10008;48.682;9.016;2023-08-06T12:25:41;14.40;99.90
3406;DHT22;10008;48.682;9.016;2023-08-06T12:28:07;14.50;99.90
3406;DHT22;10008;48.682;9.016;2023-08-06T12:30:34;14.50;99.90
3406;DHT22;10008;48.682;9.016;2023-08-06T12:33:00;14.60;99.90
3406;DHT22;10008;48.682;9.016;2023-08-06T12:35:26;14.60;99.90
3406;DHT22;10008;48.682;9.016;2023-08-06T12:37:52;14.60;99.90
3406;DHT22;10008;48.682;9.016;2023-08-06T12:40:20;14.60;99.90
3406;DHT22;10008;48.682;9.016;2023-08-06T12:42:46;14.50;99.90
3406;DHT22;10008;48.682;9.016;2023-08-06T12:45:12;14.50;99.90
3406;DHT22;10008;48.682;9.016;2023-08-06T12:47:38;14.60;99.90
3406;DHT22;10008;48.682;9.016;2023-08-06T12:50:04;14.70;99.90
3406;DHT22;10008;48.682;9.016;2023-08-06T12:52:29;14.70;99.90
3406;DHT22;10008;48.682;9.016;2023-08-06T12:54:55;14.70;99.90
3406;DHT22;10008;48.682;9.016;2023-08-06T12:57:21;14.60;99.90
3406;DHT22;10008;48.682;9.016;2023-08-06T12:59:47;14.80;99.90
3406;DHT22;10008;48.682;9.016;2023-08-06T13:02:13;15.00;99.90
3406;DHT22;10008;48.682;9.016;2023-08-06T13:04:39;15.10;99.90
3406;DHT22;10008;48.682;9.016;2023-08-06T13:07:05;15.10;99.90
3406;DHT22;10008;48.682;9.016;2023-08-06T13:09:32;15.10;99.90
3406;DHT22;10008;48.682;9.016;2023-08-06T13:11:58;15.30;99.90
3406;DHT22;10008;48.682;9.016;2023-08-06T13:14:25;15.40;99.90
3406;DHT22;10008;48.682;9.016;2023-08-06T13:16:51;15.40;99.90
3406;DHT22;10008;48.682;9.016;2023-08-06T13:19:17;15.30;99.90
3406;DHT22;10008;48.682;9.016;2023-08-06T13:24:17;15.60;99.90
3406;DHT22;10008;48.682;9.016;2023-08-06T13:26:43;15.70;99.90
3406;DHT22;10008;48.682;9.016;2023-08-06T13:29:08;15.70;99.90
3406;DHT22;10008;48.682;9.016;2023-08-06T13:31:35;15.60;99.90
3406;DHT22;10008;48.682;9.016;2023-08-06T13:34:01;15.60;99.90
3406;DHT22;10008;48.682;9.016;2023-08-06T13:36:27;15.70;99.90
3406;DHT22;10008;48.682;9.016;2023-08-06T13:38:53;15.60;99.90
3406;DHT22;10008;48.682;9.016;2023-08-06T13:41:19;15.70;99.90
3406;DHT22;10008;48.682;9.016;2023-08-06T13:43:45;15.80;99.90
3406;DHT22;10008;48.682;9.016;2023-08-06T13:46:11;16.00;99.90
3406;DHT22;10008;48.682;9.016;2023-08-06T13:48:45;16.00;99.90
3406;DHT22;10008;48.682;9.016;2023-08-06T13:51:12;16.10;99.90
3406;DHT22;10008;48.682;9.016;2023-08-06T13:53:38;16.20;99.90
3406;DHT22;10008;48.682;9.016;2023-08-06T13:56:05;16.50;99.90
3406;DHT22;10008;48.682;9.016;2023-08-06T13:58:32;16.50;99.90
3406;DHT22;10008;48.682;9.016;2023-08-06T14:00:57;18.30;99.90
3406;DHT22;10008;48.682;9.016;2023-08-06T14:03:23;15.90;99.90
3406;DHT22;10008;48.682;9.016;2023-08-06T14:05:49;15.80;99.90
3406;DHT22;10008;48.682;9.016;2023-08-06T14:08:17;15.80;99.90
3406;DHT22;10008;48.682;9.016;2023-08-06T14:10:44;15.70;99.90
3406;DHT22;10008;48.682;9.016;2023-08-06T14:13:10;15.70;99.90
3406;DHT22;10008;48.682;9.016;2023-08-06T14:15:36;15.70;99.90
3406;DHT22;10008;48.682;9.016;2023-08-06T14:18:04;15.80;99.90
3406;DHT22;10008;48.682;9.016;2023-08-06T14:20:30;15.70;99.90
3406;DHT22;10008;48.682;9.016;2023-08-06T14:22:56;15.70;99.90
3406;DHT22;10008;48.682;9.016;2023-08-06T14:25:22;15.50;99.90
3406;DHT22;10008;48.682;9.016;2023-08-06T14:27:48;15.30;99.90
3406;DHT22;10008;48.682;9.016;2023-08-06T14:30:14;15.30;99.90
3406;DHT22;10008;48.682;9.016;2023-08-06T14:32:39;15.30;99.90
3406;DHT22;10008;48.682;9.016;2023-08-06T14:35:05;15.40;99.90
3406;DHT22;10008;48.682;9.016;2023-08-06T14:37:31;15.60;99.90
3406;DHT22;10008;48.682;9.016;2023-08-06T14:39:57;15.80;99.90
3406;DHT22;10008;48.682;9.016;2023-08-06T14:42:23;15.80;99.90
3406;DHT22;10008;48.682;9.016;2023-08-06T14:44:48;15.40;99.90
3406;DHT22;10008;48.682;9.016;2023-08-06T14:47:14;15.30;99.90
3406;DHT22;10008;48.682;9.016;2023-08-06T14:49:40;15.30;99.90
3406;DHT22;10008;48.682;9.016;2023-08-06T14:52:06;15.50;99.90
3406;DHT22;10008;48.682;9.016;2023-08-06T14:54:32;15.50;99.90
3406;DHT22;10008;48.682;9.016;2023-08-06T14:56:57;15.30;99.90
3406;DHT22;10008;48.682;9.016;2023-08-06T14:59:23;15.10;99.90
3406;DHT22;10008;48.682;9.016;2023-08-06T15:01:49;15.10;99.90
3406;DHT22;10008;48.682;9.016;2023-08-06T15:04:16;15.10;99.90
3406;DHT22;10008;48.682;9.016;2023-08-06T15:06:42;15.00;99.90
3406;DHT22;10008;48.682;9.016;2023-08-06T15:09:08;14.90;99.90
3406;DHT22;10008;48.682;9.016;2023-08-06T15:11:34;14.70;99.90
3406;DHT22;10008;48.682;9.016;2023-08-06T15:13:59;14.60;99.90
3406;DHT22;10008;48.682;9.016;2023-08-06T15:16:26;14.70;99.90
3406;DHT22;10008;48.682;9.016;2023-08-06T15:18:52;14.60;99.90
3406;DHT22;10008;48.682;9.016;2023-08-06T15:21:18;14.80;99.90
3406;DHT22;10008;48.682;9.016;2023-08-06T15:23:44;14.80;99.90
3406;DHT22;10008;48.682;9.016;2023-08-06T15:26:10;15.10;99.90
3406;DHT22;10008;48.682;9.016;2023-08-06T15:28:35;15.30;99.90
3406;DHT22;10008;48.682;9.016;2023-08-06T15:31:01;15.50;99.90
3406;DHT22;10008;48.682;9.016;2023-08-06T15:33:29;15.80;99.90
3406;DHT22;10008;48.682;9.016;2023-08-06T15:35:55;15.70;99.90
3406;DHT22;10008;48.682;9.016;2023-08-06T15:38:21;15.70;99.90
3406;DHT22;10008;48.682;9.016;2023-08-06T15:40:46;16.00;99.90
3406;DHT22;10008;48.682;9.016;2023-08-06T15:43:12;16.40;99.90
3406;DHT22;10008;48.682;9.016;2023-08-06T15:45:38;16.70;99.90
3406;DHT22;10008;48.682;9.016;2023-08-06T15:48:04;16.80;99.90